Relevés horaires Eggishorn (Suisse)


Relevés horaires à Eggishorn - Vendredi 03 Janv. 2020
Heure UTC1 Température [°C] Vent [km/h] Hum. [%] Pres.4 [hPa] Visi. [Km] Nébu. [octa] Préc.5 [mm] Cond.
2m. Res. Ros. Dir.2 Vit. Moy. Raf.3
23:00 -6.2 -11.6 -11.6 ONO 13.0 -- 33.3 65 700(0.1/3h) -- -- -- --
22:00 -5.1 -11.4 -10.7 SO 18.5 -- 38.9 65 700(-0.3/3h) -- -- -- --
21:00 -6.3 -12.9 -11.5 NO 18.5 -- 51.9 66 700(-0.1/3h) -- -- -- --
20:00 -2.7 -7.7 -10.1 OSO 14.8 -- 37.0 57 700(-0.5/3h) -- -- -- --
19:00 -3.7 -9.7 -12.1 O 18.5 -- 51.9 52 700(-0.2/3h) -- -- -- --
18:00 -4.5 -11.6 -14.2 O 24.1 -- 57.4 47 700(-0.4/3h) -- -- -- --
17:00 -5.1 -11.7 -14.9 O 20.4 -- 40.7 46 700(-0.2/3h) -- -- -- --
16:00 -0.6 -7.4 -16.4 O 31.5 -- 57.4 29 700(-0.4/3h) -- -- -- --
15:00 -1.9 -8.9 -15.7 O 29.6 -- 51.9 34 700(-0.6/3h) -- -- -- --
14:00 -0.9 -7.2 -14.7 ONO 25.9 -- 51.9 34 700(-1.3/3h) -- -- -- --
13:00 0.1 -5.7 -16.0 O 24.1 -- 46.3 28 700(-1.6/3h) -- -- -- --
12:00 -0.8 -6.8 -11.8 O 24.1 -- 40.7 43 700(-1.3/3h) -- -- -- --
11:00 0.6 -4.8 -12.8 O 22.2 -- 40.7 36 700(-0.3/3h) -- -- -- --
10:00 -2.5 -7.1 -12.1 O 13.0 -- 35.2 48 700(0.2/3h) -- -- -- --
09:00 -2.6 -7.6 -12.4 ONO 14.8 -- 38.9 47 700(0.9/3h) -- -- -- --
08:00 -2.2 -7.1 -14.9 O 14.8 -- 25.9 37 700(0.9/3h) -- -- -- --
07:00 -0.3 -4 -17.0 O 11.1 -- 38.9 27 700(0.8/3h) -- -- -- --
06:00 -1.7 -6.8 -15.2 OSO 16.7 -- 42.6 35 700(0.0/3h) -- -- -- --
05:00 -3.0 -8.1 -15.7 NO 14.8 -- 40.7 37 700(-0.3/3h) -- -- -- --
04:00 -1.8 -7 -14.5 NO 16.7 -- 42.6 37 700(-0.2/3h) -- -- -- --
03:00 -3.2 -10.1 -12.6 O 25.9 -- 37.0 48 700(-0.1/3h) -- -- -- --
02:00 -3.7 -10.8 -11.6 O 25.9 -- 37.0 54 700(0.0/3h) -- -- -- --
01:00 -2.0 -8.6 -9.7 SO 25.9 -- 37.0 55 700(-0.2/3h) -- -- -- --
00:00 -1.2 -5.9 -13.2 OSO 14.8 -- 72.2 39 700(0.2/3h) -- -- -- --

1 Coordinated Universal Time. Actuellement il est 01:00 locale et 23:00 UTC.

2 Le vent souffle depuis la direction indiquée vers la direction oposée.

3 Les rafales max. sont disponible 40 min après l'heure du relevé.

4 Pour les stations d'altitude (plus de 600m) le géopotentiel du niveau le plus proche de la pression obligatoire est indiqué.

5 Les stations disposant d'un diffuseur peuvent indiquer "trace". Cela signifie que des précipitations ont touchés le sol mais que la quantité est inférieure à 0.1 mm.

Copyright

Les données affichées sur cette page sont la propriété exclusive de Météo Suisse.

Récapitulatif de la journée
Température [°C] Vent [km/h] Ensoleillement4 [h] Precipitations totale5 [mm] Pression [Hpa]
Min1 Max.2 Moy.3 Max. Min Max.
-7.0 0.8 0 72.2 2 h 18 min 0 700.0 700.0

1 Température minimale relevée entre 18:00 UTC la veille et 18:00 UTC le jour donné.

2 Température maximale relevée entre 06:00 UTC le jour donné et 06:00 UTC le lendemain.

3 Vent moyen de la journée basé sur les relevés horaires.

4 Ensoleillement en heures relevé entre 06:00 UTC la veille et 06:00 UTC le jour donné.

5 Précipitations totales tombées entre 06:00 UTC la jour donné et 06:00 UTC le lendemain.

Graphiques horaires